This is the latest recevied weather packets stored in our database for station/object NK7E-1. If no packets are shown the sender has not sent any weather packets the latest 10 day(s).
| Time | Temp. | Humidity | Pressure | Rain* | Wind** | Luminosity | Snow |
|---|---|---|---|---|---|---|---|
| 1777619400 | 17.22° C | 58% | 1012.3 hPa | 0 mm | - | - | - |
| 1777618801 | 17.22° C | 58% | 1012.4 hPa | 0 mm | - | - | - |
| 1777618200 | 17.22° C | 60% | 1012.7 hPa | 0 mm | - | - | - |
| 1777617602 | 17.22° C | 60% | 1012.6 hPa | 0 mm | - | - | - |
| 1777617000 | 17.22° C | 60% | 1012.5 hPa | 0 mm | - | - | - |
| 1777616401 | 17.22° C | 63% | 1012.5 hPa | 0 mm | - | - | - |
| 1777615802 | 17.22° C | 62% | 1012.5 hPa | 0 mm | - | - | - |
| 1777615202 | 17.22° C | 61% | 1012.4 hPa | 0 mm | - | - | - |
| 1777614600 | 17.78° C | 61% | 1012.5 hPa | 0 mm | - | - | - |
| 1777614000 | 18.33° C | 59% | 1012.5 hPa | 0 mm | - | - | - |
| 1777613401 | 19.44° C | 43% | 1012.3 hPa | 0 mm | - | - | - |
| 1777612800 | 19.44° C | 45% | 1012.1 hPa | 0 mm | - | - | - |
| 1777612201 | 19.44° C | 47% | 1011.8 hPa | 0 mm | - | - | - |
| 1777611600 | 19.44° C | 49% | 1011.8 hPa | 0 mm | - | - | - |
| 1777611001 | 18.89° C | 50% | 1011.7 hPa | 0 mm | - | - | - |
| 1777610402 | 19.44° C | 50% | 1011.2 hPa | 0 mm | - | - | - |
| 1777609800 | 19.44° C | 47% | 1011.2 hPa | 0 mm | - | - | - |
| 1777609200 | 19.44° C | 47% | 1011.8 hPa | 0 mm | - | - | - |
| 1777608601 | 20° C | 45% | 1011.5 hPa | 0 mm | - | - | - |
| 1777608003 | 21.11° C | 40% | 1011 hPa | 0 mm | - | - | - |
| 1777607401 | 21.11° C | 42% | 1010.4 hPa | 0 mm | - | - | - |
| 1777606801 | 20.56° C | 45% | 1010 hPa | 0 mm | - | - | - |
| 1777606200 | 20.56° C | 47% | 1009.8 hPa | 0 mm | - | - | - |
| 1777605603 | 20° C | 48% | 1009.7 hPa | 0 mm | - | - | - |
| 1777605001 | 20.56° C | 46% | 1009.4 hPa | 0 mm | - | - | - |
* Rain latest hour (hover to see other rain measurements)
** Current wind speed in m/s (hover to see current wind gust speed)